Skip Navigation Links Skip Navigation Links

Current Weather

Winder-Barrow, Winder, Ga.

For information only: do not use for flight planning or navigation.
Latest weather
Observation time Tuesday, January 26, 2021 6:55 PM EST
Local time Tuesday, January 26, 2021 7:28 PM EST
Flight conditions Visual Meteorological Conditions
Winds
Wind speed calm
Visibility 10 mi.
Sky condition
Ceiling 10,000 ft. broken clouds
Cloud layer broken clouds 10,000 ft.
Cloud layer overcast 11,000 ft.
Temperature 61°F
Dewpoint 46°F
Altimeter 29.97 in.Hg
Derived measurements
Relative humidity 59%
Density altitude 1160 ft.
Remarks
Fully automated report.
Automated weather observing station with precipitation discriminator.
METAR KWDR 262355Z AUTO 00000KT 10SM BKN100 OVC110 16/08 A2997 RMK AO2

Settings

Location code

InnerDrive.Weather 4.0.6770.0 Release CLR 4.0.30319.42000
Copyright ©2018 Inner Drive Technology. All rights reserved. Portions Copyright ©1986-2018 David Braverman.

Find weather

Site navigation


Skip Navigation Links

Place info

Page info

PayPal - The safer, easier way to pay online!

Return home.

Copyright ©2021 Inner Drive Technology. Purveyors of fine, hand-crafted computer software. Page printed 2021-01-27T00:28:30 UTC.